Time;durP1;ratioP1;P1;durP2;ratioP2;P2;SDS_P1;SDS_P2;PMS_P1;PMS_P2;Temp;Humidity;BMP_temperature;BMP_pressure;BME280_temperature;BME280_humidity;BME280_pressure;Samples;Min_cycle;Max_cycle;Signal;HPM_P1;HPM_P2
2022/11/26 00:02:24;;;;;;;;;;;;;;;6.46;100.00;102567.88;5051247;28;19924;-86
2022/11/26 00:04:49;;;;;;;;;;;;;;;6.45;100.00;102566.13;5060624;28;19959;-86
2022/11/26 00:07:17;;;;;;;;;;;;;;;6.44;100.00;102583.47;5079902;28;19920;-86
2022/11/26 00:09:43;;;;;;;;;;;;;;;6.44;100.00;102580.00;5091528;28;19995;-86
2022/11/26 00:12:13;;;;;;;;;;;;;;;6.42;100.00;102585.22;5047181;28;20422;-86
2022/11/26 00:14:38;;;;;;;;;;;;;;;6.41;100.00;102586.06;5080312;28;19930;-86
2022/11/26 00:17:03;;;;;;;;;;;;;;;6.41;100.00;102591.28;5073405;28;20215;-86
2022/11/26 00:19:28;;;;;;;;;;;;;;;6.39;100.00;102582.59;5076204;28;19962;-86
2022/11/26 00:21:54;;;;;;;;;;;;;;;6.39;100.00;102576.53;5068188;28;19916;-86
2022/11/26 00:24:25;;;;;;;;;;;;;;;6.38;100.00;102583.44;5073414;28;19931;-86
2022/11/26 00:26:50;;;;;;;;;;;;;;;6.37;100.00;102581.72;5076921;28;20207;-86
2022/11/26 00:29:16;;;;;;;;;;;;;;;6.36;100.00;102581.69;5047879;28;19969;-86
2022/11/26 00:31:41;;;;;;;;;;;;;;;6.37;100.00;102593.84;5076489;28;19924;-86
2022/11/26 00:34:06;;;;;;;;;;;;;;;6.36;100.00;102594.72;5079514;28;19932;-86
2022/11/26 00:36:32;;;;;;;;;;;;;;;6.33;100.00;102590.34;5062529;28;19920;-86
2022/11/26 00:38:57;;;;;;;;;;;;;;;6.32;100.00;102586.03;5050446;28;19948;-86
2022/11/26 00:41:24;;;;;;;;;;;;;;;6.31;100.00;102590.38;5077933;28;19939;-86
2022/11/26 00:43:49;;;;;;;;;;;;;;;6.30;100.00;102586.00;5079414;28;19940;-86
2022/11/26 00:46:16;;;;;;;;;;;;;;;6.30;100.00;102592.94;5078166;28;19920;-86
2022/11/26 00:48:41;;;;;;;;;;;;;;;6.28;100.00;102595.53;5056982;28;19984;-86
2022/11/26 00:51:11;;;;;;;;;;;;;;;6.27;100.00;102577.31;5057784;28;19916;-86
2022/11/26 00:53:37;;;;;;;;;;;;;;;6.27;100.00;102588.59;5057758;28;19921;-86
2022/11/26 00:56:02;;;;;;;;;;;;;;;6.26;100.00;102586.00;5029390;28;19982;-86
2022/11/26 00:58:28;;;;;;;;;;;;;;;6.25;100.00;102590.31;5059446;28;20104;-86
2022/11/26 01:00:55;;;;;;;;;;;;;;;6.24;100.00;102593.78;5074627;28;20255;-86
2022/11/26 01:03:20;;;;;;;;;;;;;;;6.22;100.00;102589.44;5061064;28;19939;-86
2022/11/26 01:05:50;;;;;;;;;;;;;;;6.21;100.00;102596.38;5044481;28;19971;-86
2022/11/26 01:08:30;;;;;;;;;;;;;;;6.19;100.00;102598.09;5058996;28;20243;-86
2022/11/26 01:10:55;;;;;;;;;;;;;;;6.18;100.00;102606.75;5077441;28;20381;-86
2022/11/26 01:13:21;;;;;;;;;;;;;;;6.17;100.00;102606.72;5078979;28;20179;-86
2022/11/26 01:15:46;;;;;;;;;;;;;;;6.16;100.00;102605.88;5045022;28;20226;-86
2022/11/26 01:18:16;;;;;;;;;;;;;;;6.15;100.00;102611.97;5061024;28;19912;-86
2022/11/26 01:20:42;;;;;;;;;;;;;;;6.14;100.00;102618.88;5068126;28;20223;-86
2022/11/26 01:23:11;;;;;;;;;;;;;;;6.13;100.00;102613.66;5060862;28;19927;-86
2022/11/26 01:25:36;;;;;;;;;;;;;;;6.13;100.00;102624.06;5059857;28;20207;-88
2022/11/26 01:28:02;;;;;;;;;;;;;;;6.12;100.00;102627.53;5058946;28;19924;-88
2022/11/26 01:30:31;;;;;;;;;;;;;;;6.12;100.00;102627.53;5065063;28;20089;-88
2022/11/26 01:32:58;;;;;;;;;;;;;;;6.12;100.00;102630.13;5077394;28;20215;-89
2022/11/26 01:35:24;;;;;;;;;;;;;;;6.10;100.00;102630.13;5065319;28;20024;-89
2022/11/26 01:37:49;;;;;;;;;;;;;;;6.11;100.00;102630.97;5055779;28;19917;-89
2022/11/26 01:40:30;;;;;;;;;;;;;;;6.11;100.00;102625.78;5055590;28;19917;-88
2022/11/26 01:42:58;;;;;;;;;;;;;;;6.10;100.00;102630.13;5057324;28;19909;-88
2022/11/26 01:45:23;;;;;;;;;;;;;;;6.11;100.00;102628.38;5059622;28;19994;-89
2022/11/26 01:47:49;;;;;;;;;;;;;;;6.10;100.00;102626.66;5059094;28;20220;-89
2022/11/26 01:50:27;;;;;;;;;;;;;;;6.11;100.00;102628.38;5058392;28;20212;-88
2022/11/26 01:52:53;;;;;;;;;;;;;;;6.11;100.00;102631.88;5068610;28;19912;-88
2022/11/26 01:55:19;;;;;;;;;;;;;;;6.12;100.00;102630.13;5056855;28;20030;-88
2022/11/26 01:57:44;;;;;;;;;;;;;;;6.11;100.00;102626.69;5039078;28;19929;-89
2022/11/26 02:00:10;;;;;;;;;;;;;;;6.13;100.00;102624.06;5038761;28;20059;-89
2022/11/26 02:02:36;;;;;;;;;;;;;;;6.13;100.00;102629.25;5055531;28;19932;-89
2022/11/26 02:05:04;;;;;;;;;;;;;;;6.13;100.00;102629.25;5058422;28;19935;-88
2022/11/26 02:07:30;;;;;;;;;;;;;;;6.13;100.00;102627.56;5059835;28;20077;-88
2022/11/26 02:09:55;;;;;;;;;;;;;;;6.12;100.00;102622.34;5056747;28;19929;-88
2022/11/26 02:12:21;;;;;;;;;;;;;;;6.13;100.00;102622.34;5056113;28;19955;-88
2022/11/26 02:14:46;;;;;;;;;;;;;;;6.13;100.00;102618.84;5080375;28;20104;-89
2022/11/26 02:17:24;;;;;;;;;;;;;;;6.14;100.00;102623.22;5033548;28;19963;-89
2022/11/26 02:19:49;;;;;;;;;;;;;;;6.14;100.00;102631.00;5059395;28;19917;-88
2022/11/26 02:22:37;;;;;;;;;;;;;;;6.13;100.00;102627.56;5069870;28;19984;-88
2022/11/26 02:25:15;;;;;;;;;;;;;;;6.13;100.00;102630.16;5062490;28;19908;-86
2022/11/26 02:27:51;;;;;;;;;;;;;;;6.14;100.00;102631.00;5082031;28;20208;-86
2022/11/26 02:30:16;;;;;;;;;;;;;;;6.14;100.00;102637.06;5081961;28;19989;-86
2022/11/26 02:32:53;;;;;;;;;;;;;;;6.14;100.00;102646.63;5052422;28;19929;-86
2022/11/26 02:35:25;;;;;;;;;;;;;;;6.15;100.00;102643.19;5054023;28;19981;-86
2022/11/26 02:37:53;;;;;;;;;;;;;;;6.14;100.00;102650.09;5073504;28;19991;-86
2022/11/26 02:40:19;;;;;;;;;;;;;;;6.14;100.00;102651.81;5081595;28;19979;-86
2022/11/26 02:42:44;;;;;;;;;;;;;;;6.14;100.00;102652.69;5064291;28;19924;-86
2022/11/26 02:45:32;;;;;;;;;;;;;;;6.15;100.00;102654.44;5080648;28;20242;-86
2022/11/26 02:47:58;;;;;;;;;;;;;;;6.17;100.00;102645.75;5071599;28;19923;-86
2022/11/26 02:50:26;;;;;;;;;;;;;;;6.18;100.00;102644.91;5060367;28;19966;-86
2022/11/26 02:52:53;;;;;;;;;;;;;;;6.18;100.00;102650.97;5078122;28;20196;-86
2022/11/26 02:55:21;;;;;;;;;;;;;;;6.18;100.00;102656.19;5081089;28;20075;-86
2022/11/26 02:57:48;;;;;;;;;;;;;;;6.20;100.00;102651.84;5080052;28;19920;-86
2022/11/26 03:00:14;;;;;;;;;;;;;;;6.20;100.00;102653.59;5080770;28;19920;-86
2022/11/26 03:02:43;;;;;;;;;;;;;;;6.21;100.00;102656.22;5062926;28;19919;-86
2022/11/26 03:05:11;;;;;;;;;;;;;;;6.22;100.00;102646.66;5062927;28;19961;-86
2022/11/26 03:07:37;;;;;;;;;;;;;;;6.23;100.00;102653.63;5079982;28;19924;-86
2022/11/26 03:10:03;;;;;;;;;;;;;;;6.24;100.00;102647.53;5043237;28;19913;-86
2022/11/26 03:12:28;;;;;;;;;;;;;;;6.24;100.00;102648.44;5060193;28;20192;-86
2022/11/26 03:14:54;;;;;;;;;;;;;;;6.25;100.00;102647.56;5080732;28;19954;-86
2022/11/26 03:17:19;;;;;;;;;;;;;;;6.25;100.00;102655.38;5079290;28;19925;-86
2022/11/26 03:19:45;;;;;;;;;;;;;;;6.27;100.00;102650.16;5064686;28;19927;-86
2022/11/26 03:22:11;;;;;;;;;;;;;;;6.27;100.00;102656.25;5060633;28;19943;-86
2022/11/26 03:24:36;;;;;;;;;;;;;;;6.28;100.00;102667.53;5061355;28;19921;-86
2022/11/26 03:27:02;;;;;;;;;;;;;;;6.28;100.00;102660.59;5059066;28;19913;-85
2022/11/26 03:29:27;;;;;;;;;;;;;;;6.29;100.00;102664.06;5043856;28;19955;-86
2022/11/26 03:31:52;;;;;;;;;;;;;;;6.29;100.00;102659.75;5043358;28;19979;-86
2022/11/26 03:34:18;;;;;;;;;;;;;;;6.31;100.00;102664.94;5059408;28;19932;-86
2022/11/26 03:36:44;;;;;;;;;;;;;;;6.32;100.00;102666.69;5059748;28;19920;-86
2022/11/26 03:39:09;;;;;;;;;;;;;;;6.33;100.00;102671.91;5044857;28;19912;-86
2022/11/26 03:41:34;;;;;;;;;;;;;;;6.34;100.00;102685.78;5060242;28;20211;-88
2022/11/26 03:44:00;;;;;;;;;;;;;;;6.34;100.00;102684.03;5041254;28;19929;-88
2022/11/26 03:46:25;;;;;;;;;;;;;;;6.35;100.00;102679.72;5057538;28;20274;-88
2022/11/26 03:48:50;;;;;;;;;;;;;;;6.36;100.00;102678.00;5057222;28;19921;-88
2022/11/26 03:51:16;;;;;;;;;;;;;;;6.37;100.00;102690.13;5059957;28;19928;-88
2022/11/26 03:53:41;;;;;;;;;;;;;;;6.38;100.00;102684.06;5077535;28;20139;-88
2022/11/26 03:56:06;;;;;;;;;;;;;;;6.38;100.00;102684.94;5059652;28;19936;-90
2022/11/26 03:58:32;;;;;;;;;;;;;;;6.39;100.00;102689.28;5058969;28;19921;-88
2022/11/26 04:00:59;;;;;;;;;;;;;;;6.40;100.00;102685.81;5051891;28;20204;-88
2022/11/26 04:03:24;;;;;;;;;;;;;;;6.40;100.00;102687.56;5060445;28;19947;-89
2022/11/26 04:05:49;;;;;;;;;;;;;;;6.40;100.00;102685.81;5068274;28;20204;-89
2022/11/26 04:08:15;;;;;;;;;;;;;;;6.41;100.00;102686.69;5060235;28;19916;-89
2022/11/26 04:10:40;;;;;;;;;;;;;;;6.43;100.00;102690.19;5048353;28;20143;-89
2022/11/26 04:13:05;;;;;;;;;;;;;;;6.42;100.00;102681.50;5059779;28;19921;-88
2022/11/26 04:15:31;;;;;;;;;;;;;;;6.43;100.00;102682.38;5075221;28;19928;-86
2022/11/26 04:17:56;;;;;;;;;;;;;;;6.44;100.00;102686.69;5077567;28;20199;-86
2022/11/26 04:20:21;;;;;;;;;;;;;;;6.43;100.00;102677.16;5076404;28;19916;-86
2022/11/26 04:22:47;;;;;;;;;;;;;;;6.44;100.00;102691.91;5060790;28;19916;-86
2022/11/26 04:25:12;;;;;;;;;;;;;;;6.44;100.00;102687.59;5043712;28;19912;-86
2022/11/26 04:27:37;;;;;;;;;;;;;;;6.44;100.00;102695.41;5057769;28;20056;-86
2022/11/26 04:30:03;;;;;;;;;;;;;;;6.45;100.00;102691.06;5040143;28;19935;-86
2022/11/26 04:32:29;;;;;;;;;;;;;;;6.45;100.00;102691.91;5073884;28;19916;-86
2022/11/26 04:34:54;;;;;;;;;;;;;;;6.45;100.00;102693.66;5076680;28;19923;-86
2022/11/26 04:37:19;;;;;;;;;;;;;;;6.44;100.00;102689.31;5056567;28;19992;-86
2022/11/26 04:39:44;;;;;;;;;;;;;;;6.46;100.00;102693.69;5024091;28;20267;-86
2022/11/26 04:42:10;;;;;;;;;;;;;;;6.45;100.00;102693.66;5035618;28;19920;-86
2022/11/26 04:44:35;;;;;;;;;;;;;;;6.45;100.00;102691.91;5060533;28;19939;-86
2022/11/26 04:47:00;;;;;;;;;;;;;;;6.46;100.00;102691.06;5033883;28;19948;-86
2022/11/26 04:49:26;;;;;;;;;;;;;;;6.46;100.00;102701.47;5058417;28;19920;-86
2022/11/26 04:51:51;;;;;;;;;;;;;;;6.45;100.00;102696.25;5047353;28;19947;-86
2022/11/26 04:54:16;;;;;;;;;;;;;;;6.45;100.00;102709.28;5076161;28;20172;-86
2022/11/26 04:56:41;;;;;;;;;;;;;;;6.46;100.00;102708.44;5072461;28;19924;-86
2022/11/26 04:59:07;;;;;;;;;;;;;;;6.46;100.00;102714.50;5056287;28;19920;-86
2022/11/26 05:01:32;;;;;;;;;;;;;;;6.45;100.00;102709.28;5041422;28;19920;-86
2022/11/26 05:03:57;;;;;;;;;;;;;;;6.46;100.00;102713.63;5077046;28;19927;-86
2022/11/26 05:06:23;;;;;;;;;;;;;;;6.46;100.00;102708.44;5056056;28;20140;-86
2022/11/26 05:08:48;;;;;;;;;;;;;;;6.46;100.00;102711.03;5057748;28;19913;-86
2022/11/26 05:11:13;;;;;;;;;;;;;;;6.46;100.00;102716.25;5039530;28;19921;-86
2022/11/26 05:13:39;;;;;;;;;;;;;;;6.47;100.00;102717.97;5056722;28;19920;-86
2022/11/26 05:16:04;;;;;;;;;;;;;;;6.48;100.00;102719.72;5059207;28;19919;-86
2022/11/26 05:18:29;;;;;;;;;;;;;;;6.47;100.00;102724.03;5045844;28;19971;-86
2022/11/26 05:20:55;;;;;;;;;;;;;;;6.47;100.00;102715.34;5039822;28;19925;-86
2022/11/26 05:23:20;;;;;;;;;;;;;;;6.48;100.00;102714.50;5066598;28;19928;-86
2022/11/26 05:25:46;;;;;;;;;;;;;;;6.48;100.00;102725.78;5076463;28;20111;-86
2022/11/26 05:28:12;;;;;;;;;;;;;;;6.47;100.00;102729.22;5050459;28;19924;-86
2022/11/26 05:30:37;;;;;;;;;;;;;;;6.49;100.00;102729.25;5057633;28;19939;-86
2022/11/26 05:33:02;;;;;;;;;;;;;;;6.48;100.00;102728.38;5061738;28;20144;-86
2022/11/26 05:35:27;;;;;;;;;;;;;;;6.48;100.00;102731.00;5042944;28;20280;-86
2022/11/26 05:37:53;;;;;;;;;;;;;;;6.49;100.00;102734.47;5043143;28;19947;-86
2022/11/26 05:40:18;;;;;;;;;;;;;;;6.50;100.00;102736.22;5059049;28;19984;-86
2022/11/26 05:42:43;;;;;;;;;;;;;;;6.49;100.00;102737.06;5058699;28;19912;-86
2022/11/26 05:45:09;;;;;;;;;;;;;;;6.50;100.00;102736.22;5040731;28;19913;-86
2022/11/26 05:47:34;;;;;;;;;;;;;;;6.49;100.00;102742.25;5060288;28;19908;-86
2022/11/26 05:49:59;;;;;;;;;;;;;;;6.51;100.00;102743.16;5061938;28;19924;-86
2022/11/26 05:52:25;;;;;;;;;;;;;;;6.51;100.00;102737.94;5080222;28;19987;-86
2022/11/26 05:54:50;;;;;;;;;;;;;;;6.50;100.00;102742.28;5062710;28;19924;-86
2022/11/26 05:57:16;;;;;;;;;;;;;;;6.52;100.00;102737.09;5062878;28;19928;-86
2022/11/26 05:59:41;;;;;;;;;;;;;;;6.52;100.00;102742.28;5050016;28;20447;-86
2022/11/26 06:02:06;;;;;;;;;;;;;;;6.52;100.00;102737.09;5043003;28;19931;-86
2022/11/26 06:04:31;;;;;;;;;;;;;;;6.52;100.00;102743.16;5055672;28;20212;-86
2022/11/26 06:06:57;;;;;;;;;;;;;;;6.53;100.00;102746.63;5059908;28;19950;-86
2022/11/26 06:09:22;;;;;;;;;;;;;;;6.53;100.00;102746.63;5079205;28;20112;-86
2022/11/26 06:11:48;;;;;;;;;;;;;;;6.53;100.00;102742.31;5063323;28;20014;-86
2022/11/26 06:14:13;;;;;;;;;;;;;;;6.54;100.00;102740.56;5056731;28;19924;-86
2022/11/26 06:16:39;;;;;;;;;;;;;;;6.55;100.00;102744.94;5043195;28;19975;-86
2022/11/26 06:19:04;;;;;;;;;;;;;;;6.54;100.00;102745.78;5046405;28;19945;-86
2022/11/26 06:21:29;;;;;;;;;;;;;;;6.56;100.00;102745.78;5079505;28;19973;-86
2022/11/26 06:23:55;;;;;;;;;;;;;;;6.56;100.00;102744.06;5062514;28;19920;-86
2022/11/26 06:26:20;;;;;;;;;;;;;;;6.56;100.00;102744.06;5042522;28;19921;-86
2022/11/26 06:28:45;;;;;;;;;;;;;;;6.57;100.00;102743.19;5059807;28;19913;-86
2022/11/26 06:31:11;;;;;;;;;;;;;;;6.58;100.00;102749.28;5078268;28;19957;-86
2022/11/26 06:33:36;;;;;;;;;;;;;;;6.58;100.00;102750.13;5062983;28;19924;-86
2022/11/26 06:36:02;;;;;;;;;;;;;;;6.58;100.00;102747.53;5047366;28;19979;-86
2022/11/26 06:38:27;;;;;;;;;;;;;;;6.59;100.00;102749.28;5059218;28;19950;-86
2022/11/26 06:40:59;;;;;;;;;;;;;;;6.61;100.00;102757.13;5072085;28;19948;-86
2022/11/26 06:43:25;;;;;;;;;;;;;;;6.60;100.00;102761.44;5062458;28;19912;-86
2022/11/26 06:45:50;;;;;;;;;;;;;;;6.60;100.00;102764.03;5051133;28;20251;-86
2022/11/26 06:48:15;;;;;;;;;;;;;;;6.61;100.00;102765.78;5042059;28;19951;-86
2022/11/26 06:50:41;;;;;;;;;;;;;;;6.62;100.00;102761.44;5043037;28;20128;-86
2022/11/26 06:53:06;;;;;;;;;;;;;;;6.62;100.00;102762.34;5041764;28;19921;-86
2022/11/26 06:55:31;;;;;;;;;;;;;;;6.63;100.00;102764.06;5045293;28;20200;-86
2022/11/26 06:57:56;;;;;;;;;;;;;;;6.63;100.00;102766.66;5045138;28;19943;-86
2022/11/26 07:00:22;;;;;;;;;;;;;;;6.63;100.00;102768.41;5045343;28;20207;-86
2022/11/26 07:02:47;;;;;;;;;;;;;;;6.64;100.00;102772.72;5045941;28;19913;-86
2022/11/26 07:05:12;;;;;;;;;;;;;;;6.64;100.00;102776.22;5061052;28;19916;-86
2022/11/26 07:07:38;;;;;;;;;;;;;;;6.65;100.00;102782.31;5045810;28;19920;-86
2022/11/26 07:10:04;;;;;;;;;;;;;;;6.65;100.00;102788.38;5045005;28;19913;-86
2022/11/26 07:12:29;;;;;;;;;;;;;;;6.66;100.00;102792.72;5061429;28;19927;-86
2022/11/26 07:14:55;;;;;;;;;;;;;;;6.67;100.00;102788.38;5078689;28;20215;-86
2022/11/26 07:17:20;;;;;;;;;;;;;;;6.67;100.00;102794.44;5045536;28;20102;-86
2022/11/26 07:19:45;;;;;;;;;;;;;;;6.68;100.00;102788.41;5041956;28;19921;-86
2022/11/26 07:22:11;;;;;;;;;;;;;;;6.69;100.00;102786.66;5055716;28;19916;-86
2022/11/26 07:24:36;;;;;;;;;;;;;;;6.69;100.00;102790.16;5061669;28;19920;-86
2022/11/26 07:27:01;;;;;;;;;;;;;;;6.70;100.00;102794.47;5046479;28;19924;-86
2022/11/26 07:29:27;;;;;;;;;;;;;;;6.70;100.00;102796.22;5041741;28;20212;-86
2022/11/26 07:31:52;;;;;;;;;;;;;;;6.71;100.00;102793.63;5054002;28;19917;-86
2022/11/26 07:34:22;;;;;;;;;;;;;;;6.72;100.00;102795.38;5072946;28;20232;-86
2022/11/26 07:36:48;;;;;;;;;;;;;;;6.72;100.00;102810.13;5058399;28;19912;-86
2022/11/26 07:39:16;;;;;;;;;;;;;;;6.73;100.00;102802.31;5056939;28;20247;-86
2022/11/26 07:41:41;;;;;;;;;;;;;;;6.75;100.00;102809.25;5076526;28;20131;-86
2022/11/26 07:44:10;;;;;;;;;;;;;;;6.76;100.00;102806.66;5072539;28;19953;-86
2022/11/26 07:46:35;;;;;;;;;;;;;;;6.76;100.00;102806.66;5078247;28;20186;-86
2022/11/26 07:49:01;;;;;;;;;;;;;;;6.77;100.00;102808.44;5043992;28;19944;-86
2022/11/26 07:51:27;;;;;;;;;;;;;;;6.77;100.00;102811.03;5052455;28;19920;-86
2022/11/26 07:53:53;;;;;;;;;;;;;;;6.79;100.00;102808.44;5076800;28;20215;-86
2022/11/26 07:56:18;;;;;;;;;;;;;;;6.79;100.00;102814.50;5060043;28;19928;-86
2022/11/26 07:58:44;;;;;;;;;;;;;;;6.80;100.00;102812.78;5043494;28;20000;-85
2022/11/26 08:01:11;;;;;;;;;;;;;;;6.80;100.00;102816.25;5074184;28;19916;-86
2022/11/26 08:03:37;;;;;;;;;;;;;;;6.81;100.00;102810.19;5058308;28;19924;-86
2022/11/26 08:06:06;;;;;;;;;;;;;;;6.82;100.00;102809.34;5049675;28;19916;-86
2022/11/26 08:08:33;;;;;;;;;;;;;;;6.82;100.00;102817.16;5074688;28;19927;-86
2022/11/26 08:10:58;;;;;;;;;;;;;;;6.84;100.00;102814.53;5068359;28;20010;-86
2022/11/26 08:13:23;;;;;;;;;;;;;;;6.85;100.00;102808.47;5072449;28;19946;-86
2022/11/26 08:15:49;;;;;;;;;;;;;;;6.85;100.00;102805.88;5058127;28;19929;-86
2022/11/26 08:18:14;;;;;;;;;;;;;;;6.87;100.00;102822.38;5074836;28;19987;-86
2022/11/26 08:20:39;;;;;;;;;;;;;;;6.87;100.00;102824.97;5063341;28;19993;-86
2022/11/26 08:23:04;;;;;;;;;;;;;;;6.88;100.00;102830.19;5058434;28;20121;-86
2022/11/26 08:25:30;;;;;;;;;;;;;;;6.90;100.00;102819.78;5077239;28;19925;-86
2022/11/26 08:27:55;;;;;;;;;;;;;;;6.89;100.00;102818.94;5042448;28;19925;-86
2022/11/26 08:30:20;;;;;;;;;;;;;;;6.91;100.00;102819.81;5076955;28;19928;-86
2022/11/26 08:32:46;;;;;;;;;;;;;;;6.92;100.00;102821.53;5073935;28;20163;-86
2022/11/26 08:35:12;;;;;;;;;;;;;;;6.93;100.00;102825.03;5056184;28;20132;-86
2022/11/26 08:37:37;;;;;;;;;;;;;;;6.94;100.00;102831.09;5075726;28;20203;-86
2022/11/26 08:40:02;;;;;;;;;;;;;;;6.95;100.00;102832.84;5073951;28;19924;-86
2022/11/26 08:42:28;;;;;;;;;;;;;;;6.95;100.00;102835.44;5076144;28;19962;-86
2022/11/26 08:44:53;;;;;;;;;;;;;;;6.96;100.00;102834.59;5042646;28;19931;-86
2022/11/26 08:47:19;;;;;;;;;;;;;;;6.96;100.00;102825.03;5055370;28;19920;-86
2022/11/26 08:49:47;;;;;;;;;;;;;;;6.96;100.00;102830.25;5073701;28;19995;-86
2022/11/26 08:52:12;;;;;;;;;;;;;;;6.98;100.00;102832.84;5073191;28;19959;-86
2022/11/26 08:54:38;;;;;;;;;;;;;;;6.98;100.00;102836.31;5056095;28;20167;-86
2022/11/26 08:57:04;;;;;;;;;;;;;;;6.99;100.00;102832.88;5036142;28;20065;-86
2022/11/26 08:59:30;;;;;;;;;;;;;;;7.00;100.00;102839.81;5046172;28;19997;-86
2022/11/26 09:01:55;;;;;;;;;;;;;;;7.01;100.00;102836.34;5049118;28;19913;-86
2022/11/26 09:04:20;;;;;;;;;;;;;;;7.01;100.00;102843.31;5065695;28;19913;-86
2022/11/26 09:06:45;;;;;;;;;;;;;;;7.02;100.00;102835.50;5047584;28;19995;-86
2022/11/26 09:09:16;;;;;;;;;;;;;;;7.03;100.00;102839.84;5066256;28;19987;-86
2022/11/26 09:11:55;;;;;;;;;;;;;;;7.03;100.00;102842.44;5049938;28;19912;-86
2022/11/26 09:14:23;;;;;;;;;;;;;;;7.05;100.00;102847.66;5047081;28;20000;-86
2022/11/26 09:16:48;;;;;;;;;;;;;;;7.05;100.00;102843.31;5054853;28;19925;-86
2022/11/26 09:19:14;;;;;;;;;;;;;;;7.06;100.00;102837.25;5045077;28;19983;-86
2022/11/26 09:21:40;;;;;;;;;;;;;;;7.08;100.00;102837.28;5049262;28;19931;-86
2022/11/26 09:24:05;;;;;;;;;;;;;;;7.08;100.00;102832.94;5026666;28;20027;-86
2022/11/26 09:26:31;;;;;;;;;;;;;;;7.09;100.00;102833.78;5037869;28;19947;-86
2022/11/26 09:28:56;;;;;;;;;;;;;;;7.10;100.00;102828.59;5038807;28;19987;-86
2022/11/26 09:31:22;;;;;;;;;;;;;;;7.11;100.00;102827.75;5037089;28;20147;-86
2022/11/26 09:33:48;;;;;;;;;;;;;;;7.13;100.00;102832.97;5042565;28;19953;-86
2022/11/26 09:36:14;;;;;;;;;;;;;;;7.14;100.00;102839.91;5041196;28;19929;-86
2022/11/26 09:38:40;;;;;;;;;;;;;;;7.16;100.00;102848.59;5055253;28;19908;-86
2022/11/26 09:41:17;;;;;;;;;;;;;;;7.17;100.00;102846.84;5053515;28;20144;-86
2022/11/26 09:43:57;;;;;;;;;;;;;;;7.18;100.00;102852.06;5046382;28;19992;-86
2022/11/26 09:46:42;;;;;;;;;;;;;;;7.19;100.00;102856.44;5034305;28;20228;-86
2022/11/26 09:49:11;;;;;;;;;;;;;;;7.21;100.00;102854.72;5025544;28;19931;-86
2022/11/26 09:51:36;;;;;;;;;;;;;;;7.21;100.00;102846.91;5055063;28;20216;-86
2022/11/26 09:54:03;;;;;;;;;;;;;;;7.22;100.00;102842.53;5034773;28;19928;-86
2022/11/26 09:56:29;;;;;;;;;;;;;;;7.25;100.00;102837.34;5063490;28;20239;-86
2022/11/26 09:59:01;;;;;;;;;;;;;;;7.26;100.00;102841.72;5067441;28;19936;-86
2022/11/26 10:01:27;;;;;;;;;;;;;;;7.27;100.00;102851.25;5070437;28;19958;-86
2022/11/26 10:03:53;;;;;;;;;;;;;;;7.27;100.00;102849.53;5060822;28;19916;-86
2022/11/26 10:06:18;;;;;;;;;;;;;;;7.29;100.00;102846.94;5052704;28;19924;-86
2022/11/26 10:08:46;;;;;;;;;;;;;;;7.29;100.00;102846.94;5053279;28;19914;-86
2022/11/26 10:11:14;;;;;;;;;;;;;;;7.31;100.00;102837.38;5069711;28;20134;-86
2022/11/26 10:13:45;;;;;;;;;;;;;;;7.33;100.00;102842.59;5057586;28;20318;-86
2022/11/26 10:16:34;;;;;;;;;;;;;;;7.34;100.00;102846.97;5063494;28;19916;-86
2022/11/26 10:19:12;;;;;;;;;;;;;;;7.36;100.00;102846.09;5057234;28;20443;-86
2022/11/26 10:21:40;;;;;;;;;;;;;;;7.37;100.00;102840.03;5056393;28;19999;-86
2022/11/26 10:24:13;;;;;;;;;;;;;;;7.40;100.00;102836.56;5072685;28;19961;-86
2022/11/26 10:26:39;;;;;;;;;;;;;;;7.40;100.00;102837.41;5069300;28;20239;-86
2022/11/26 10:29:14;;;;;;;;;;;;;;;7.42;100.00;102847.84;5073860;28;19919;-86
2022/11/26 10:31:41;;;;;;;;;;;;;;;7.44;100.00;102843.53;5057562;28;19975;-86
2022/11/26 10:34:15;;;;;;;;;;;;;;;7.45;100.00;102834.84;5077076;28;19988;-86
2022/11/26 10:36:41;;;;;;;;;;;;;;;7.47;100.00;102840.94;5077407;28;20325;-86
2022/11/26 10:39:11;;;;;;;;;;;;;;;7.49;100.00;102836.59;5077348;28;20167;-86
2022/11/26 10:41:36;;;;;;;;;;;;;;;7.49;100.00;102840.09;5076531;28;19927;-86
2022/11/26 10:44:20;;;;;;;;;;;;;;;7.52;100.00;102841.81;5074710;28;19920;-86
2022/11/26 10:46:46;;;;;;;;;;;;;;;7.55;100.00;102836.63;5071466;28;20094;-86
2022/11/26 10:49:29;;;;;;;;;;;;;;;7.57;100.00;102832.28;5059633;28;20208;-86
2022/11/26 10:51:57;;;;;;;;;;;;;;;7.59;100.00;102837.53;5041827;28;19920;-86
2022/11/26 10:54:24;;;;;;;;;;;;;;;7.61;100.00;102838.41;5061744;28;19932;-85
2022/11/26 10:56:53;;;;;;;;;;;;;;;7.63;100.00;102837.53;5061593;28;19916;-85
2022/11/26 10:59:33;;;;;;;;;;;;;;;7.65;100.00;102840.13;5036364;28;19921;-85
2022/11/26 11:02:04;;;;;;;;;;;;;;;7.67;100.00;102852.31;5037151;28;19960;-85
2022/11/26 11:04:33;;;;;;;;;;;;;;;7.69;100.00;102852.31;5043488;28;19917;-86
2022/11/26 11:06:58;;;;;;;;;;;;;;;7.71;100.00;102847.97;5035947;28;19995;-85
2022/11/26 11:09:26;;;;;;;;;;;;;;;7.73;100.00;102850.59;5035717;28;19924;-85
2022/11/26 11:12:07;;;;;;;;;;;;;;;7.74;100.00;102855.81;5030416;28;19925;-85
2022/11/26 11:14:32;;;;;;;;;;;;;;;7.74;100.00;102853.22;5054825;28;19948;-85
2022/11/26 11:16:57;;;;;;;;;;;;;;;7.75;100.00;102854.97;5040127;28;20081;-85
2022/11/26 11:19:24;;;;;;;;;;;;;;;7.77;100.00;102853.22;5053564;28;19913;-85
2022/11/26 11:21:49;;;;;;;;;;;;;;;7.77;100.00;102863.66;5057255;28;19923;-85
2022/11/26 11:24:23;;;;;;;;;;;;;;;7.79;100.00;102851.50;5039484;28;19917;-85
2022/11/26 11:26:54;;;;;;;;;;;;;;;7.81;100.00;102846.28;5057992;28;19959;-85
2022/11/26 11:29:26;;;;;;;;;;;;;;;7.82;100.00;102845.41;5056854;28;20208;-86
2022/11/26 11:31:51;;;;;;;;;;;;;;;7.83;100.00;102839.31;5038243;28;19909;-86
2022/11/26 11:34:22;;;;;;;;;;;;;;;7.85;100.00;102834.97;5046673;28;19959;-86
2022/11/26 11:37:14;;;;;;;;;;;;;;;7.86;100.00;102828.91;5056385;28;20197;-86
2022/11/26 11:39:39;;;;;;;;;;;;;;;7.88;100.00;102828.03;5031137;28;19917;-86
2022/11/26 11:42:39;;;;;;;;;;;;;;;7.91;100.00;102821.06;5049819;28;20216;-86
2022/11/26 11:45:16;;;;;;;;;;;;;;;7.91;100.00;102818.47;5002561;28;19959;-86
2022/11/26 11:47:42;;;;;;;;;;;;;;;7.93;100.00;102821.94;5037354;28;19920;-86
2022/11/26 11:50:15;;;;;;;;;;;;;;;7.94;100.00;102823.69;5056373;28;20436;-86
2022/11/26 11:52:50;;;;;;;;;;;;;;;7.95;100.00;102823.72;5056174;28;19992;-86
2022/11/26 11:55:31;;;;;;;;;;;;;;;7.97;100.00;102829.81;5036336;28;20267;-86
2022/11/26 11:57:59;;;;;;;;;;;;;;;7.98;100.00;102828.06;5073369;28;19947;-86
2022/11/26 12:00:48;;;;;;;;;;;;;;;7.99;100.00;102825.44;5091849;28;19920;-86
2022/11/26 12:03:20;;;;;;;;;;;;;;;8.02;100.00;102816.75;5021653;28;19920;-86
2022/11/26 12:05:55;;;;;;;;;;;;;;;8.04;100.00;102817.63;5058607;28;20224;-86
2022/11/26 12:08:32;;;;;;;;;;;;;;;8.06;100.00;102813.28;5075145;28;20096;-86
2022/11/26 12:11:04;;;;;;;;;;;;;;;8.10;100.00;102816.78;5060929;28;19912;-86
2022/11/26 12:13:30;;;;;;;;;;;;;;;8.11;100.00;102831.56;5058974;28;20182;-86
2022/11/26 12:16:01;;;;;;;;;;;;;;;8.13;100.00;102835.91;5058418;28;19912;-86
2022/11/26 12:18:33;;;;;;;;;;;;;;;8.15;100.00;102836.78;5086350;28;19920;-86
2022/11/26 12:21:01;;;;;;;;;;;;;;;8.16;100.00;102835.03;5073566;28;19921;-86
2022/11/26 12:23:30;;;;;;;;;;;;;;;8.19;100.00;102841.13;5073134;28;20162;-86
2022/11/26 12:26:05;;;;;;;;;;;;;;;8.20;100.00;102835.03;5058105;28;19921;-86
2022/11/26 12:28:32;;;;;;;;;;;;;;;8.22;100.00;102833.31;5059943;28;20254;-86
2022/11/26 12:30:57;;;;;;;;;;;;;;;8.22;100.00;102830.72;5054921;28;20092;-86
2022/11/26 12:33:22;;;;;;;;;;;;;;;8.24;100.00;102834.19;5072015;28;19919;-86
2022/11/26 12:35:53;;;;;;;;;;;;;;;8.25;100.00;102820.25;5058104;28;19917;-86
2022/11/26 12:38:48;;;;;;;;;;;;;;;8.26;100.00;102816.78;5058493;28;20223;-86